createdAt,value
2019-05-11T00:00:23.626Z,17.82
2019-05-11T00:02:53.259Z,17.84
2019-05-11T00:05:22.855Z,17.63
2019-05-11T00:07:52.450Z,17.50
2019-05-11T00:10:23.696Z,17.24
2019-05-11T00:12:53.585Z,17.15
2019-05-11T00:15:23.179Z,17.40
2019-05-11T00:17:52.783Z,17.40
2019-05-11T00:20:22.402Z,17.24
2019-05-11T00:22:52.022Z,17.54
2019-05-11T00:25:21.664Z,17.40
2019-05-11T00:27:51.303Z,17.34
2019-05-11T00:30:21.011Z,17.42
2019-05-11T00:32:50.672Z,17.10
2019-05-11T00:35:20.290Z,17.15
2019-05-11T00:37:50.081Z,17.36
2019-05-11T00:40:19.794Z,17.12
2019-05-11T00:42:49.415Z,17.00
2019-05-11T00:45:19.112Z,17.06
2019-05-11T00:47:48.712Z,17.03
2019-05-11T00:50:18.533Z,16.82
2019-05-11T00:52:48.159Z,16.77
2019-05-11T00:55:17.802Z,16.81
2019-05-11T00:57:47.395Z,16.86
2019-05-11T01:00:17.200Z,16.98
2019-05-11T01:02:46.810Z,17.09
2019-05-11T01:05:16.469Z,17.00
2019-05-11T01:07:46.040Z,16.93
2019-05-11T01:10:25.640Z,17.07
2019-05-11T01:12:47.224Z,17.08
2019-05-11T01:15:17.446Z,17.06
2019-05-11T01:17:47.060Z,17.18
2019-05-11T01:20:18.641Z,17.18
2019-05-11T01:22:48.113Z,17.29
2019-05-11T01:25:17.806Z,17.33
2019-05-11T01:27:47.505Z,17.51
2019-05-11T01:30:17.610Z,17.25
2019-05-11T01:32:47.172Z,17.03
2019-05-11T01:35:16.988Z,16.91
2019-05-11T01:37:46.674Z,17.10
2019-05-11T01:40:16.519Z,17.13
2019-05-11T01:42:46.127Z,17.03
2019-05-11T01:45:15.701Z,17.03
2019-05-11T01:47:45.333Z,16.95
2019-05-11T01:50:15.052Z,17.17
2019-05-11T01:52:44.699Z,17.08
2019-05-11T01:55:14.326Z,16.81
2019-05-11T01:57:43.994Z,16.79
2019-05-11T02:00:13.791Z,16.81
2019-05-11T02:02:43.413Z,16.60
2019-05-11T02:05:29.117Z,16.69
2019-05-11T02:07:59.849Z,16.64
2019-05-11T02:10:29.683Z,16.81
2019-05-11T02:12:59.748Z,16.69
2019-05-11T02:15:29.478Z,16.78
2019-05-11T02:17:59.176Z,16.59
2019-05-11T02:20:28.917Z,16.62
2019-05-11T02:22:58.450Z,16.61
2019-05-11T02:25:28.067Z,16.45
2019-05-11T02:27:57.632Z,16.77
2019-05-11T02:30:27.290Z,16.39
2019-05-11T02:32:56.866Z,16.38
2019-05-11T02:35:26.514Z,16.64
2019-05-11T02:37:56.107Z,16.44
2019-05-11T02:40:25.809Z,16.44
2019-05-11T02:42:55.427Z,16.39
2019-05-11T02:45:38.566Z,16.45
2019-05-11T02:48:08.393Z,16.49
2019-05-11T02:50:39.513Z,16.24
2019-05-11T02:53:10.355Z,16.22
2019-05-11T02:55:40.195Z,16.40
2019-05-11T02:58:09.939Z,16.30
2019-05-11T03:00:41.683Z,16.36
2019-05-11T03:03:11.666Z,16.58
2019-05-11T03:05:41.251Z,16.35
2019-05-11T03:08:10.891Z,16.31
2019-05-11T03:10:40.477Z,16.37
2019-05-11T03:13:10.242Z,16.77
2019-05-11T03:15:39.873Z,16.47
2019-05-11T03:18:09.473Z,16.51
2019-05-11T03:20:39.089Z,16.54
2019-05-11T03:23:08.656Z,16.43
2019-05-11T03:25:38.275Z,16.49
2019-05-11T03:28:07.854Z,16.59
2019-05-11T03:30:37.544Z,16.49
2019-05-11T03:33:07.151Z,16.45
2019-05-11T03:35:36.746Z,16.77
2019-05-11T03:38:06.453Z,16.62
2019-05-11T03:40:36.014Z,16.67
2019-05-11T03:43:05.710Z,16.84
2019-05-11T03:45:35.350Z,16.66
2019-05-11T03:48:04.948Z,16.78
2019-05-11T03:50:34.553Z,16.73
2019-05-11T03:53:04.217Z,16.77
2019-05-11T03:55:33.805Z,16.77
2019-05-11T03:58:03.374Z,16.77
2019-05-11T04:00:33.024Z,16.62
2019-05-11T04:03:02.646Z,16.31
2019-05-11T04:05:32.289Z,16.43
2019-05-11T04:08:01.873Z,16.26
2019-05-11T04:10:31.459Z,16.48
2019-05-11T04:13:01.087Z,16.49
2019-05-11T04:15:30.674Z,16.48
2019-05-11T04:18:00.291Z,16.36
2019-05-11T04:20:30.069Z,16.70
2019-05-11T04:22:59.661Z,16.91
2019-05-11T04:25:29.268Z,16.97
2019-05-11T04:27:58.849Z,16.97
2019-05-11T04:30:28.454Z,16.80
2019-05-11T04:32:58.031Z,16.71
2019-05-11T04:35:27.613Z,16.68
2019-05-11T04:37:57.266Z,16.82
2019-05-11T04:40:26.919Z,16.93
2019-05-11T04:42:56.622Z,16.87
2019-05-11T04:45:26.188Z,17.14
2019-05-11T04:47:55.754Z,17.40
2019-05-11T04:50:25.467Z,17.57
2019-05-11T04:52:55.094Z,17.82
2019-05-11T04:55:24.709Z,17.59
2019-05-11T04:57:54.904Z,17.63
2019-05-11T05:00:24.703Z,17.35
2019-05-11T05:02:54.336Z,17.71
2019-05-11T05:05:23.927Z,17.91
2019-05-11T05:08:07.422Z,17.93
2019-05-11T05:10:24.942Z,18.33
2019-05-11T05:13:09.344Z,18.35
2019-05-11T05:15:25.884Z,17.92
2019-05-11T05:17:55.484Z,18.16
2019-05-11T05:20:25.064Z,17.90
2019-05-11T05:22:54.699Z,17.93
2019-05-11T05:25:24.309Z,18.08
2019-05-11T05:27:54.002Z,18.19
2019-05-11T05:30:23.636Z,18.29
2019-05-11T05:32:53.279Z,18.21
2019-05-11T05:35:22.906Z,18.02
2019-05-11T05:37:52.540Z,18.15
2019-05-11T05:40:22.170Z,18.22
2019-05-11T05:42:51.753Z,18.43
2019-05-11T05:45:21.334Z,18.22
2019-05-11T05:47:50.982Z,18.00
2019-05-11T05:50:20.761Z,18.13
2019-05-11T05:52:50.369Z,18.09
2019-05-11T05:55:19.971Z,18.26
2019-05-11T05:57:49.621Z,18.53
2019-05-11T06:00:19.577Z,18.45
2019-05-11T06:02:49.167Z,18.33
2019-05-11T06:05:18.750Z,18.36
2019-05-11T06:07:48.366Z,18.38
2019-05-11T06:10:18.170Z,18.55
2019-05-11T06:12:47.834Z,18.57
2019-05-11T06:15:17.658Z,18.53
2019-05-11T06:17:47.240Z,18.40
2019-05-11T06:20:17.719Z,18.60
2019-05-11T06:22:47.695Z,18.47
2019-05-11T06:25:17.383Z,18.76
2019-05-11T06:27:46.954Z,18.90
2019-05-11T06:30:16.646Z,18.81
2019-05-11T06:32:46.257Z,18.83
2019-05-11T06:35:16.035Z,18.71
2019-05-11T06:37:45.700Z,18.80
2019-05-11T06:40:15.434Z,18.73
2019-05-11T06:42:45.056Z,18.74
2019-05-11T06:45:14.732Z,18.98
2019-05-11T06:47:44.359Z,19.40
2019-05-11T06:50:14.226Z,19.17
2019-05-11T06:52:43.822Z,19.10
2019-05-11T06:55:13.542Z,19.20
2019-05-11T06:57:43.149Z,19.10
2019-05-11T07:00:13.423Z,19.42
2019-05-11T07:02:43.230Z,19.54
2019-05-11T07:05:12.966Z,19.53
2019-05-11T07:07:47.585Z,19.63
2019-05-11T07:10:14.077Z,19.42
2019-05-11T07:12:56.907Z,19.59
2019-05-11T07:15:20.375Z,19.55
2019-05-11T07:17:49.968Z,19.53
2019-05-11T07:20:19.553Z,19.52
2019-05-11T07:22:49.146Z,19.62
2019-05-11T07:25:18.717Z,19.71
2019-05-11T07:27:48.320Z,19.84
2019-05-11T07:30:17.918Z,19.74
2019-05-11T07:32:48.191Z,19.70
2019-05-11T07:35:18.770Z,19.79
2019-05-11T07:37:48.617Z,19.81
2019-05-11T07:40:18.919Z,19.81
2019-05-11T07:42:48.813Z,20.16
2019-05-11T07:45:18.826Z,20.28
2019-05-11T07:47:48.750Z,20.25
2019-05-11T07:50:18.511Z,20.27
2019-05-11T07:52:48.468Z,20.44
2019-05-11T07:55:19.140Z,20.57
2019-05-11T07:57:48.907Z,20.53
2019-05-11T08:00:18.978Z,20.88
2019-05-11T08:02:48.655Z,20.94
2019-05-11T08:05:18.298Z,21.23
2019-05-11T08:07:48.317Z,21.14
2019-05-11T08:10:18.687Z,20.96
2019-05-11T08:12:48.523Z,21.26
2019-05-11T08:15:18.694Z,21.48
2019-05-11T08:17:49.001Z,21.73
2019-05-11T08:20:18.987Z,21.49
2019-05-11T08:22:48.564Z,21.50
2019-05-11T08:25:18.450Z,21.66
2019-05-11T08:27:48.667Z,21.89
2019-05-11T08:30:18.964Z,21.71
2019-05-11T08:32:49.458Z,21.53
2019-05-11T08:35:19.613Z,21.91
2019-05-11T08:37:49.318Z,21.99
2019-05-11T08:40:20.038Z,22.04
2019-05-11T08:42:49.761Z,22.08
2019-05-11T08:45:24.016Z,22.23
2019-05-11T08:47:50.912Z,22.45
2019-05-11T08:50:20.749Z,22.67
2019-05-11T08:52:50.423Z,22.53
2019-05-11T08:55:20.450Z,22.27
2019-05-11T08:57:50.202Z,22.14
2019-05-11T09:00:20.175Z,22.77
2019-05-11T09:02:50.982Z,22.61
2019-05-11T09:05:20.797Z,22.72
2019-05-11T09:07:50.540Z,22.06
2019-05-11T09:10:20.179Z,22.48
2019-05-11T09:12:49.809Z,22.16
2019-05-11T09:15:32.397Z,22.61
2019-05-11T09:17:50.912Z,23.16
2019-05-11T09:20:20.673Z,23.28
2019-05-11T09:22:50.294Z,22.96
2019-05-11T09:25:19.908Z,23.57
2019-05-11T09:27:49.558Z,23.20
2019-05-11T09:30:19.405Z,23.05
2019-05-11T09:32:49.213Z,23.41
2019-05-11T09:35:19.196Z,24.26
2019-05-11T09:37:48.839Z,23.38
2019-05-11T09:40:18.972Z,23.76
2019-05-11T09:42:48.754Z,23.83
2019-05-11T09:45:18.962Z,23.36
2019-05-11T09:47:48.700Z,23.82
2019-05-11T09:50:18.456Z,23.11
2019-05-11T09:52:49.049Z,22.90
2019-05-11T09:55:19.306Z,23.08
2019-05-11T09:57:49.168Z,22.82
2019-05-11T10:00:19.027Z,23.29
2019-05-11T10:02:48.973Z,23.94
2019-05-11T10:05:19.138Z,23.87
2019-05-11T10:07:48.841Z,23.88
2019-05-11T10:10:19.003Z,23.95
2019-05-11T10:12:52.345Z,24.32
2019-05-11T10:15:20.289Z,23.80
2019-05-11T10:17:50.137Z,23.72
2019-05-11T10:20:19.759Z,23.41
2019-05-11T10:22:49.436Z,23.58
2019-05-11T10:25:19.166Z,23.71
2019-05-11T10:27:49.190Z,23.59
2019-05-11T10:30:19.901Z,23.90
2019-05-11T10:32:49.614Z,24.45
2019-05-11T10:35:19.290Z,25.02
2019-05-11T10:37:48.985Z,24.56
2019-05-11T10:40:19.166Z,24.38
2019-05-11T10:42:48.923Z,24.48
2019-05-11T10:45:18.690Z,24.85
2019-05-11T10:47:49.089Z,25.04
2019-05-11T10:50:19.142Z,24.80
2019-05-11T10:52:48.748Z,24.33
2019-05-11T10:55:19.276Z,24.64
2019-05-11T10:57:49.310Z,24.86
2019-05-11T11:00:19.601Z,24.56
2019-05-11T11:02:49.222Z,24.48
2019-05-11T11:05:19.160Z,24.19
2019-05-11T11:07:48.920Z,24.36
2019-05-11T11:10:18.811Z,23.98
2019-05-11T11:12:49.121Z,24.12
2019-05-11T11:15:19.132Z,24.14
2019-05-11T11:17:48.859Z,24.45
2019-05-11T11:20:18.880Z,24.74
2019-05-11T11:22:48.712Z,24.57
2019-05-11T11:25:19.888Z,24.53
2019-05-11T11:27:49.491Z,24.86
2019-05-11T11:30:20.232Z,24.84
2019-05-11T11:32:50.143Z,24.41
2019-05-11T11:35:20.269Z,24.60
2019-05-11T11:37:49.984Z,24.97
2019-05-11T11:40:19.710Z,25.23
2019-05-11T11:42:49.352Z,25.53
2019-05-11T11:45:19.074Z,25.69
2019-05-11T11:47:49.475Z,25.76
2019-05-11T11:50:19.431Z,25.98
2019-05-11T11:52:49.058Z,25.89
2019-05-11T11:55:18.906Z,25.73
2019-05-11T11:57:50.304Z,25.34
2019-05-11T12:00:20.438Z,25.34
2019-05-11T12:02:50.099Z,25.73
2019-05-11T12:05:19.790Z,25.97
2019-05-11T12:07:49.432Z,25.97
2019-05-11T12:10:19.307Z,25.68
2019-05-11T12:12:48.887Z,25.68
2019-05-11T12:15:18.635Z,25.68
2019-05-11T12:17:48.531Z,26.22
2019-05-11T12:20:18.503Z,26.35
2019-05-11T12:22:48.193Z,25.96
2019-05-11T12:25:18.611Z,26.13
2019-05-11T12:27:49.163Z,26.07
2019-05-11T12:30:19.250Z,26.22
2019-05-11T12:32:50.186Z,26.61
2019-05-11T12:35:20.472Z,26.02
2019-05-11T12:37:50.130Z,25.84
2019-05-11T12:40:20.066Z,25.83
2019-05-11T12:42:49.660Z,26.08
2019-05-11T12:45:19.460Z,26.28
2019-05-11T12:47:49.094Z,25.80
2019-05-11T12:50:18.908Z,25.98
2019-05-11T12:52:48.692Z,25.94
2019-05-11T12:55:19.958Z,26.80
2019-05-11T12:57:49.601Z,26.79
2019-05-11T13:00:20.344Z,27.19
2019-05-11T13:02:49.982Z,27.86
2019-05-11T13:05:19.740Z,26.71
2019-05-11T13:07:49.362Z,26.62
2019-05-11T13:10:19.284Z,26.99
2019-05-11T13:12:49.438Z,27.16
2019-05-11T13:15:20.217Z,27.43
2019-05-11T13:17:49.896Z,27.30
2019-05-11T13:20:19.609Z,26.78
2019-05-11T13:22:49.220Z,26.25
2019-05-11T13:25:18.855Z,26.56
2019-05-11T13:27:49.236Z,26.55
2019-05-11T13:30:19.362Z,26.17
2019-05-11T13:32:49.349Z,26.43
2019-05-11T13:35:20.291Z,26.18
2019-05-11T13:37:49.906Z,26.38
2019-05-11T13:40:19.701Z,26.13
2019-05-11T13:42:49.386Z,26.34
2019-05-11T13:45:19.112Z,26.00
2019-05-11T13:47:54.673Z,26.13
2019-05-11T13:50:21.021Z,25.85
2019-05-11T13:52:50.622Z,25.99
2019-05-11T13:55:20.279Z,25.94
2019-05-11T13:57:49.877Z,26.28
2019-05-11T14:00:19.615Z,25.88
2019-05-11T14:02:49.704Z,25.91
2019-05-11T14:05:19.425Z,26.02
2019-05-11T14:07:49.069Z,25.95
2019-05-11T14:10:18.784Z,26.33
2019-05-11T14:12:48.383Z,25.92
2019-05-11T14:15:18.775Z,26.06
2019-05-11T14:18:03.529Z,26.10
2019-05-11T14:20:20.554Z,26.08
2019-05-11T14:22:50.167Z,25.73
2019-05-11T14:25:19.840Z,25.67
2019-05-11T14:27:49.508Z,26.03
2019-05-11T14:30:19.332Z,26.23
2019-05-11T14:32:51.098Z,26.20
2019-05-11T14:35:20.693Z,26.27
2019-05-11T14:37:50.301Z,26.05
2019-05-11T14:40:19.923Z,26.07
2019-05-11T14:42:49.558Z,26.56
2019-05-11T14:45:19.287Z,26.45
2019-05-11T14:47:48.900Z,26.64
2019-05-11T14:50:19.013Z,27.01
2019-05-11T14:52:49.234Z,26.37
2019-05-11T14:55:18.975Z,26.57
2019-05-11T14:57:48.929Z,26.73
2019-05-11T15:00:18.931Z,26.73
2019-05-11T15:02:49.844Z,26.78
2019-05-11T15:05:20.950Z,26.95
2019-05-11T15:07:52.897Z,26.86
2019-05-11T15:10:23.723Z,27.41
2019-05-11T15:12:53.319Z,27.13
2019-05-11T15:15:23.681Z,27.17
2019-05-11T15:17:53.317Z,27.11
2019-05-11T15:20:22.931Z,26.66
2019-05-11T15:22:52.579Z,26.52
2019-05-11T15:25:22.402Z,26.08
2019-05-11T15:27:52.016Z,26.93
2019-05-11T15:30:22.855Z,26.77
2019-05-11T15:32:52.467Z,26.75
2019-05-11T15:35:22.194Z,26.38
2019-05-11T15:37:51.935Z,26.80
2019-05-11T15:40:23.054Z,26.62
2019-05-11T15:42:52.832Z,26.40
2019-05-11T15:45:22.534Z,26.55
2019-05-11T15:47:52.285Z,26.08
2019-05-11T15:50:22.504Z,26.31
2019-05-11T15:52:52.131Z,26.58
2019-05-11T15:55:21.929Z,26.35
2019-05-11T15:57:51.533Z,27.12
2019-05-11T16:00:22.992Z,26.61
2019-05-11T16:02:52.603Z,26.44
2019-05-11T16:05:22.308Z,26.50
2019-05-11T16:07:51.953Z,26.79
2019-05-11T16:10:21.563Z,26.58
2019-05-11T16:12:51.243Z,26.71
2019-05-11T16:15:20.940Z,26.64
2019-05-11T16:17:50.975Z,26.40
2019-05-11T16:20:20.675Z,26.68
2019-05-11T16:22:50.283Z,26.35
2019-05-11T16:25:20.314Z,26.09
2019-05-11T16:27:50.174Z,26.07
2019-05-11T16:30:21.754Z,26.16
2019-05-11T16:32:51.586Z,26.00
2019-05-11T16:35:21.400Z,26.26
2019-05-11T16:37:50.985Z,26.65
2019-05-11T16:40:21.261Z,27.04
2019-05-11T16:42:51.072Z,26.40
2019-05-11T16:45:23.837Z,26.44
2019-05-11T16:47:52.173Z,26.09
2019-05-11T16:50:21.793Z,25.95
2019-05-11T16:52:51.411Z,26.41
2019-05-11T16:55:21.011Z,26.17
2019-05-11T16:57:50.631Z,26.18
2019-05-11T17:00:20.515Z,26.23
2019-05-11T17:02:50.111Z,26.22
2019-05-11T17:05:26.667Z,26.07
2019-05-11T17:07:51.031Z,25.95
2019-05-11T17:10:20.940Z,25.82
2019-05-11T17:12:50.568Z,25.39
2019-05-11T17:15:20.254Z,25.87
2019-05-11T17:17:49.935Z,25.46
2019-05-11T17:20:19.634Z,25.20
2019-05-11T17:22:49.393Z,25.15
2019-05-11T17:25:19.640Z,25.01
2019-05-11T17:27:49.514Z,24.53
2019-05-11T17:30:19.935Z,24.86
2019-05-11T17:32:50.227Z,24.61
2019-05-11T17:35:20.072Z,24.58
2019-05-11T17:37:49.707Z,24.44
2019-05-11T17:40:23.368Z,24.43
2019-05-11T17:42:53.853Z,24.46
2019-05-11T17:45:23.903Z,24.11
2019-05-11T17:47:54.379Z,24.11
2019-05-11T17:50:28.768Z,24.28
2019-05-11T17:52:59.028Z,24.05
2019-05-11T17:55:30.003Z,23.89
2019-05-11T17:58:01.247Z,23.70
2019-05-11T18:00:32.328Z,23.72
2019-05-11T18:03:01.976Z,23.40
2019-05-11T18:05:31.670Z,23.40
2019-05-11T18:08:01.441Z,23.49
2019-05-11T18:10:31.087Z,23.29
2019-05-11T18:13:04.014Z,23.04
2019-05-11T18:15:32.620Z,23.13
2019-05-11T18:18:02.359Z,22.77
2019-05-11T18:20:32.340Z,22.40
2019-05-11T18:23:02.040Z,22.32
2019-05-11T18:25:31.767Z,22.04
2019-05-11T18:28:01.525Z,22.01
2019-05-11T18:30:31.259Z,21.87
2019-05-11T18:33:00.958Z,21.99
2019-05-11T18:35:30.579Z,21.99
2019-05-11T18:38:00.261Z,22.01
2019-05-11T18:40:29.894Z,22.23
2019-05-11T18:42:59.573Z,21.92
2019-05-11T18:45:29.285Z,22.05
2019-05-11T18:47:58.948Z,21.95
2019-05-11T18:50:31.049Z,21.89
2019-05-11T18:53:00.344Z,21.84
2019-05-11T18:55:30.295Z,21.90
2019-05-11T18:58:00.092Z,21.95
2019-05-11T19:00:29.790Z,21.98
2019-05-11T19:02:59.436Z,21.67
2019-05-11T19:05:29.323Z,21.25
2019-05-11T19:07:59.083Z,20.97
2019-05-11T19:10:28.861Z,20.85
2019-05-11T19:12:59.059Z,20.98
2019-05-11T19:15:29.211Z,21.34
2019-05-11T19:17:58.910Z,21.30
2019-05-11T19:20:28.570Z,21.40
2019-05-11T19:22:58.987Z,21.46
2019-05-11T19:25:28.898Z,21.47
2019-05-11T19:27:59.028Z,21.24
2019-05-11T19:30:28.912Z,21.25
2019-05-11T19:32:59.091Z,21.16
2019-05-11T19:35:28.911Z,21.25
2019-05-11T19:37:58.636Z,21.46
2019-05-11T19:40:28.387Z,21.46
2019-05-11T19:42:59.040Z,21.43
2019-05-11T19:45:29.642Z,21.61
2019-05-11T19:47:59.309Z,21.77
2019-05-11T19:50:28.901Z,21.67
2019-05-11T19:52:58.703Z,21.58
2019-05-11T19:55:28.737Z,21.58
2019-05-11T19:57:58.594Z,21.78
2019-05-11T20:00:28.564Z,21.72
2019-05-11T20:02:58.714Z,20.85
2019-05-11T20:05:29.050Z,21.30
2019-05-11T20:07:59.071Z,21.17
2019-05-11T20:10:28.813Z,21.22
2019-05-11T20:12:58.967Z,21.21
2019-05-11T20:15:29.708Z,21.03
2019-05-11T20:18:07.939Z,20.70
2019-05-11T20:20:38.259Z,21.25
2019-05-11T20:23:07.996Z,20.69
2019-05-11T20:25:38.091Z,19.97
2019-05-11T20:28:08.000Z,19.99
2019-05-11T20:30:37.715Z,19.82
2019-05-11T20:33:08.711Z,19.83
2019-05-11T20:35:38.501Z,19.82
2019-05-11T20:38:08.620Z,19.82
2019-05-11T20:40:38.411Z,19.55
2019-05-11T20:43:08.116Z,19.61
2019-05-11T20:45:40.222Z,19.55
2019-05-11T20:48:12.367Z,19.51
2019-05-11T20:50:48.175Z,19.32
2019-05-11T20:53:18.209Z,19.28
2019-05-11T20:55:49.977Z,19.08
2019-05-11T20:58:19.827Z,19.27
2019-05-11T21:00:50.300Z,19.49
2019-05-11T21:03:22.830Z,19.71
2019-05-11T21:05:59.050Z,19.81
2019-05-11T21:08:29.264Z,19.86
2019-05-11T21:10:59.446Z,20.06
2019-05-11T21:13:29.558Z,20.07
2019-05-11T21:16:00.270Z,20.07
2019-05-11T21:18:30.010Z,20.16
2019-05-11T21:20:59.694Z,20.36
2019-05-11T21:23:29.544Z,20.25
2019-05-11T21:25:59.743Z,20.09
2019-05-11T21:28:30.695Z,20.15
2019-05-11T21:31:00.867Z,20.16
2019-05-11T21:33:30.518Z,20.02
2019-05-11T21:36:00.718Z,19.58
2019-05-11T21:38:31.817Z,19.78
2019-05-11T21:41:01.629Z,19.85
2019-05-11T21:43:31.308Z,19.91
2019-05-11T21:46:01.401Z,19.87
2019-05-11T21:48:31.110Z,19.66
2019-05-11T21:51:00.765Z,19.66
2019-05-11T21:53:30.384Z,19.55
2019-05-11T21:56:00.033Z,19.34
2019-05-11T21:58:29.630Z,19.43
2019-05-11T22:00:59.341Z,19.04
2019-05-11T22:03:28.967Z,18.92
2019-05-11T22:05:58.570Z,18.74
2019-05-11T22:08:28.464Z,18.81
2019-05-11T22:11:00.027Z,18.60
2019-05-11T22:13:29.495Z,18.34
2019-05-11T22:15:59.105Z,18.54
2019-05-11T22:18:31.362Z,18.41
2019-05-11T22:21:00.199Z,18.26
2019-05-11T22:23:29.839Z,18.24
2019-05-11T22:25:59.419Z,18.06
2019-05-11T22:28:29.066Z,17.78
2019-05-11T22:30:58.659Z,17.66
2019-05-11T22:33:28.496Z,16.94
2019-05-11T22:35:58.845Z,16.92
2019-05-11T22:38:30.253Z,16.72
2019-05-11T22:40:59.985Z,16.46
2019-05-11T22:43:29.658Z,16.43
2019-05-11T22:45:59.301Z,15.90
2019-05-11T22:48:28.907Z,16.04
2019-05-11T22:50:58.726Z,16.05
2019-05-11T22:53:43.343Z,16.17
2019-05-11T22:55:59.719Z,16.51
2019-05-11T22:58:29.425Z,16.27
2019-05-11T23:00:59.757Z,16.38
2019-05-11T23:03:29.497Z,16.35
2019-05-11T23:05:59.129Z,16.16
2019-05-11T23:08:28.823Z,16.07
2019-05-11T23:10:58.543Z,16.16
2019-05-11T23:13:28.168Z,16.23
2019-05-11T23:15:58.417Z,16.27
2019-05-11T23:18:28.768Z,16.20
2019-05-11T23:20:58.495Z,16.13
2019-05-11T23:23:28.995Z,16.09
2019-05-11T23:25:58.597Z,16.29
2019-05-11T23:28:28.942Z,16.33
2019-05-11T23:30:58.637Z,16.38
2019-05-11T23:33:28.236Z,16.43
2019-05-11T23:35:58.760Z,16.44
2019-05-11T23:38:28.508Z,16.44
2019-05-11T23:40:58.704Z,16.39
2019-05-11T23:43:30.103Z,16.52
2019-05-11T23:45:59.774Z,16.55
2019-05-11T23:48:29.514Z,16.70
2019-05-11T23:50:59.133Z,16.81
2019-05-11T23:53:28.719Z,16.66
2019-05-11T23:55:58.368Z,16.56
2019-05-11T23:58:28.334Z,16.46
